Time;durP1;ratioP1;P1;durP2;ratioP2;P2;SDS_P1;SDS_P2;PMS_P1;PMS_P2;Temp;Humidity;BMP_temperature;BMP_pressure;BME280_temperature;BME280_humidity;BME280_pressure;Samples;Min_cycle;Max_cycle;Signal;HPM_P1;HPM_P2
2021/08/07 00:01:15;;;;;;;4.88;3.35;;;;;;;15.32;72.87;99419.84;10268813;28;20229;-74
2021/08/07 00:06:19;;;;;;;4.57;3.10;;;;;;;15.18;73.09;99416.88;10268543;28;20200;-75
2021/08/07 00:11:22;;;;;;;3.50;2.72;;;;;;;15.24;72.96;99416.16;10269458;28;20705;-74
2021/08/07 00:16:25;;;;;;;2.92;2.72;;;;;;;15.33;72.99;99418.81;10268347;28;20201;-75
2021/08/07 00:21:30;;;;;;;3.15;2.85;;;;;;;15.39;72.39;99405.47;10268422;28;20223;-75
2021/08/07 00:26:32;;;;;;;3.30;2.95;;;;;;;15.54;71.71;99408.22;10267924;28;20216;-75
2021/08/07 00:31:35;;;;;;;4.70;2.90;;;;;;;15.57;71.72;99407.84;10266653;28;20776;-75
2021/08/07 00:36:39;;;;;;;3.95;3.15;;;;;;;15.58;71.31;99411.44;10266819;28;20332;-74
2021/08/07 00:41:43;;;;;;;3.33;3.03;;;;;;;15.47;71.40;99409.97;10267261;28;20267;-75
2021/08/07 00:46:49;;;;;;;4.25;2.72;;;;;;;15.26;72.32;99407.88;10266956;28;20228;-75
2021/08/07 00:51:55;;;;;;;5.38;2.72;;;;;;;15.20;72.39;99416.72;10267357;28;20231;-75
2021/08/07 00:56:59;;;;;;;3.58;2.88;;;;;;;15.05;72.93;99419.31;10267063;28;20392;-75
2021/08/07 01:02:09;;;;;;;3.08;2.70;;;;;;;15.08;72.90;99407.28;10313351;23;20240;-74
2021/08/07 01:07:29;;;;;;;4.75;3.08;;;;;;;15.12;72.83;99395.94;10304298;28;20251;-74
2021/08/07 01:12:38;;;;;;;3.45;3.13;;;;;;;15.20;72.24;99392.38;10273168;28;20225;-74
2021/08/07 01:17:44;;;;;;;5.10;2.83;;;;;;;15.25;72.14;99385.41;10264703;28;20193;-74
2021/08/07 01:22:59;;;;;;;3.75;3.00;;;;;;;15.28;72.08;99384.19;10264311;28;20231;-74
2021/08/07 01:28:06;;;;;;;3.47;3.15;;;;;;;15.25;72.37;99387.25;10263991;28;20224;-74
2021/08/07 01:33:11;;;;;;;4.38;2.67;;;;;;;15.16;72.65;99385.59;10280748;28;20623;-74
2021/08/07 01:38:16;;;;;;;4.32;2.90;;;;;;;15.11;72.76;99379.88;10264235;28;20205;-74
2021/08/07 01:43:36;;;;;;;5.15;3.25;;;;;;;15.05;73.07;99386.84;10265394;28;20220;-74
2021/08/07 01:48:52;;;;;;;3.45;3.00;;;;;;;15.03;73.08;99386.22;10287073;28;20253;-74
2021/08/07 01:54:17;;;;;;;4.72;3.10;;;;;;;15.02;72.94;99392.63;10270789;28;20292;-74
2021/08/07 01:59:23;;;;;;;4.03;2.90;;;;;;;14.98;73.55;99381.31;10286808;28;20255;-74
2021/08/07 02:04:27;;;;;;;3.03;2.80;;;;;;;14.89;73.49;99370.72;10269573;28;20600;-74
2021/08/07 02:09:42;;;;;;;3.28;2.97;;;;;;;14.78;73.86;99370.13;10269661;28;20323;-74
2021/08/07 02:14:49;;;;;;;3.42;2.65;;;;;;;14.68;74.06;99365.94;10269159;28;20628;-74
2021/08/07 02:19:54;;;;;;;4.45;2.70;;;;;;;14.64;74.20;99360.03;10269446;28;20208;-74
2021/08/07 02:24:58;;;;;;;3.50;3.03;;;;;;;14.65;74.07;99361.72;10268672;28;20215;-74
2021/08/07 02:30:13;;;;;;;4.93;3.10;;;;;;;14.67;73.98;99365.06;10269892;28;20235;-74
2021/08/07 02:35:21;;;;;;;2.72;2.53;;;;;;;14.67;74.08;99361.53;10269373;28;20208;-74
2021/08/07 02:40:26;;;;;;;3.28;2.75;;;;;;;14.69;73.67;99359.50;10271702;28;20220;-74
2021/08/07 02:45:36;;;;;;;3.42;2.80;;;;;;;14.66;73.92;99365.25;10286815;28;20268;-74
2021/08/07 02:50:41;;;;;;;3.40;2.80;;;;;;;14.62;73.69;99358.50;10270246;28;20366;-73
2021/08/07 02:55:46;;;;;;;3.08;2.53;;;;;;;14.52;74.12;99356.03;10286303;28;20197;-74
2021/08/07 03:00:59;;;;;;;5.57;2.97;;;;;;;14.40;74.24;99355.56;10286619;28;20236;-74
2021/08/07 03:06:07;;;;;;;2.90;2.58;;;;;;;14.33;74.50;99357.25;10270644;28;20716;-74
2021/08/07 03:11:13;;;;;;;4.90;2.75;;;;;;;14.33;74.76;99360.78;10269418;28;20232;-74
2021/08/07 03:16:20;;;;;;;2.72;2.53;;;;;;;14.36;74.53;99355.03;10267948;28;20743;-74
2021/08/07 03:21:25;;;;;;;5.70;2.90;;;;;;;14.37;74.31;99345.94;10268279;28;20305;-74
2021/08/07 03:26:35;;;;;;;2.63;2.40;;;;;;;14.34;74.54;99343.56;10267731;28;20201;-74
2021/08/07 03:31:49;;;;;;;3.10;2.70;;;;;;;14.39;74.41;99353.88;10267794;28;20220;-74
2021/08/07 03:36:56;;;;;;;3.78;2.75;;;;;;;14.45;74.10;99353.16;10267270;28;20196;-73
2021/08/07 03:41:59;;;;;;;4.38;3.20;;;;;;;14.50;73.88;99358.91;10267481;28;20232;-74
2021/08/07 03:47:05;;;;;;;3.10;2.50;;;;;;;14.44;73.76;99359.59;10282817;28;20200;-74
2021/08/07 03:52:08;;;;;;;4.28;2.70;;;;;;;14.44;73.89;99359.59;10268289;28;20705;-75
2021/08/07 03:57:11;;;;;;;3.65;2.80;;;;;;;14.44;73.73;99356.06;10266500;28;20205;-74
2021/08/07 04:02:16;;;;;;;2.83;2.50;;;;;;;14.49;73.60;99351.81;10267649;28;20715;-74
2021/08/07 04:07:20;;;;;;;4.85;2.63;;;;;;;14.54;73.51;99348.59;10266308;28;20228;-74
2021/08/07 04:12:26;;;;;;;5.18;2.50;;;;;;;14.50;73.41;99336.44;10266544;28;20334;-75
2021/08/07 04:17:32;;;;;;;3.35;2.53;;;;;;;14.48;73.54;99339.34;10266340;28;20231;-73
2021/08/07 04:22:36;;;;;;;3.13;2.40;;;;;;;14.52;73.63;99345.22;10270914;28;20220;-73
2021/08/07 04:27:39;;;;;;;3.53;2.70;;;;;;;14.55;73.19;99343.00;10268383;28;20209;-73
2021/08/07 04:32:44;;;;;;;2.72;2.53;;;;;;;14.57;72.99;99348.25;10282318;28;20268;-74
2021/08/07 04:37:49;;;;;;;2.95;2.03;;;;;;;14.57;73.24;99345.53;10267160;28;20189;-73
2021/08/07 04:42:58;;;;;;;4.72;2.63;;;;;;;14.59;73.22;99347.06;10281242;28;20225;-73
2021/08/07 04:48:05;;;;;;;5.85;3.00;;;;;;;14.60;73.17;99356.00;10264645;28;20224;-73
2021/08/07 04:53:25;;;;;;;3.05;2.50;;;;;;;14.59;73.29;99352.47;10265734;28;20367;-73
2021/08/07 04:58:34;;;;;;;3.17;2.30;;;;;;;14.61;72.94;99357.66;10264431;28;20289;-73
2021/08/07 05:03:39;;;;;;;2.92;2.22;;;;;;;14.69;72.86;99357.63;10280696;28;20236;-73
2021/08/07 05:08:45;;;;;;;4.07;2.75;;;;;;;14.75;72.99;99356.91;10265049;28;20217;-74
2021/08/07 05:13:48;;;;;;;4.53;2.70;;;;;;;14.80;72.97;99345.59;10266196;28;20200;-74
2021/08/07 05:18:55;;;;;;;3.13;2.58;;;;;;;14.88;72.60;99350.94;10279101;28;20197;-74
2021/08/07 05:24:00;;;;;;;4.85;2.70;;;;;;;14.99;72.48;99355.97;10263725;28;20263;-74
2021/08/07 05:29:04;;;;;;;3.90;2.90;;;;;;;15.12;72.34;99349.13;10264289;28;20282;-73
2021/08/07 05:34:08;;;;;;;5.63;2.60;;;;;;;15.24;71.85;99344.97;10280447;28;20765;-74
2021/08/07 05:39:11;;;;;;;6.30;2.65;;;;;;;15.36;71.92;99342.72;10264924;28;20262;-74
2021/08/07 05:44:14;;;;;;;4.25;2.13;;;;;;;15.49;70.95;99337.56;10265131;28;20259;-74
2021/08/07 05:49:18;;;;;;;3.90;2.60;;;;;;;15.60;71.16;99350.66;10265971;28;20251;-73
2021/08/07 05:54:21;;;;;;;2.53;2.30;;;;;;;15.70;70.31;99351.25;10264474;28;20205;-74
2021/08/07 05:59:25;;;;;;;2.55;2.17;;;;;;;15.79;69.87;99343.06;10264454;28;20228;-73
2021/08/07 06:04:29;;;;;;;3.63;2.08;;;;;;;15.93;69.24;99345.81;10264212;28;20208;-74
2021/08/07 06:09:36;;;;;;;4.05;2.03;;;;;;;16.04;68.88;99340.94;10264331;28;20324;-74
2021/08/07 06:14:39;;;;;;;4.72;2.63;;;;;;;16.14;68.40;99345.06;10263800;28;20201;-74
2021/08/07 06:19:45;;;;;;;2.53;2.30;;;;;;;16.40;68.01;99335.69;10280652;28;20248;-73
2021/08/07 06:24:48;;;;;;;3.00;2.13;;;;;;;16.59;66.94;99335.09;10264841;28;20200;-74
2021/08/07 06:29:51;;;;;;;4.38;1.95;;;;;;;16.80;66.85;99337.00;10264987;28;20240;-74
2021/08/07 06:34:55;;;;;;;2.92;1.77;;;;;;;16.93;66.32;99336.34;10269911;28;20201;-74
2021/08/07 06:39:59;;;;;;;2.50;2.30;;;;;;;16.97;65.81;99329.47;10270409;28;20224;-74
2021/08/07 06:45:03;;;;;;;2.10;2.00;;;;;;;17.10;66.05;99331.50;10269475;28;20678;-73
2021/08/07 06:50:09;;;;;;;2.95;1.90;;;;;;;17.29;65.91;99323.81;10285711;28;20228;-74
2021/08/07 06:55:13;;;;;;;2.10;1.90;;;;;;;17.53;65.02;99328.00;10285840;28;20250;-72
2021/08/07 07:00:16;;;;;;;3.13;1.80;;;;;;;17.76;64.32;99342.19;10313686;23;20287;-75
2021/08/07 07:05:29;;;;;;;2.13;1.90;;;;;;;18.09;64.69;99342.47;10285394;28;20666;-75
2021/08/07 07:10:33;;;;;;;1.92;1.67;;;;;;;18.36;60.86;99348.91;10269822;28;20232;-75
2021/08/07 07:15:36;;;;;;;3.75;1.92;;;;;;;18.62;60.18;99350.06;10268901;28;20283;-75
2021/08/07 07:20:41;;;;;;;3.17;1.55;;;;;;;18.28;60.22;99346.34;10269050;28;20519;-76
2021/08/07 07:25:49;;;;;;;2.40;1.80;;;;;;;18.73;59.91;99340.50;10268556;28;20649;-75
2021/08/07 07:30:52;;;;;;;4.10;1.73;;;;;;;18.82;58.92;99336.63;10268115;28;20237;-76
2021/08/07 07:35:57;;;;;;;3.85;1.80;;;;;;;19.31;58.12;99337.34;10267755;28;20256;-75
2021/08/07 07:41:00;;;;;;;2.72;1.48;;;;;;;19.58;57.67;99330.97;10268211;28;20590;-75
2021/08/07 07:46:03;;;;;;;5.50;1.92;;;;;;;19.42;57.20;99336.78;10267088;28;20232;-74
2021/08/07 07:51:08;;;;;;;2.80;1.75;;;;;;;19.68;55.90;99335.97;10267976;28;20693;-76
2021/08/07 07:56:13;;;;;;;2.65;1.73;;;;;;;19.55;56.76;99331.31;10267255;28;20330;-76
2021/08/07 08:01:17;;;;;;;2.45;1.77;;;;;;;19.47;57.33;99326.06;10267341;28;20228;-75
2021/08/07 08:06:22;;;;;;;2.53;1.70;;;;;;;19.71;57.01;99335.53;10266324;28;20197;-75
2021/08/07 08:11:25;;;;;;;2.13;1.35;;;;;;;19.48;56.47;99341.38;10267984;28;20229;-75
2021/08/07 08:16:28;;;;;;;2.03;1.50;;;;;;;19.51;56.79;99331.97;10266404;28;20207;-75
2021/08/07 08:21:33;;;;;;;1.60;1.50;;;;;;;19.89;56.81;99319.41;10267943;28;20673;-75
2021/08/07 08:26:37;;;;;;;2.72;1.60;;;;;;;20.50;54.14;99322.88;10267101;28;20200;-75
2021/08/07 08:31:39;;;;;;;3.75;1.70;;;;;;;19.93;55.71;99319.00;10266270;28;20279;-75
2021/08/07 08:36:46;;;;;;;2.20;1.70;;;;;;;19.34;57.27;99328.81;10265710;28;20287;-75
2021/08/07 08:41:49;;;;;;;2.13;1.33;;;;;;;19.46;57.71;99324.41;10266010;28;20223;-75
2021/08/07 08:46:53;;;;;;;2.38;1.63;;;;;;;19.59;57.69;99335.34;10265663;28;20224;-76
2021/08/07 08:52:00;;;;;;;1.63;1.50;;;;;;;19.58;56.74;99327.38;10266149;28;20256;-76
2021/08/07 08:57:04;;;;;;;2.60;1.73;;;;;;;19.63;56.97;99325.69;10266099;28;20200;-76
2021/08/07 09:02:06;;;;;;;1.98;1.67;;;;;;;19.92;56.51;99318.16;10267677;28;20223;-76
2021/08/07 09:07:14;;;;;;;3.88;1.52;;;;;;;20.12;55.37;99310.78;10265482;28;20196;-76
2021/08/07 09:12:17;;;;;;;2.42;1.70;;;;;;;20.12;55.94;99299.88;10265852;28;20234;-76
2021/08/07 09:17:22;;;;;;;3.30;1.90;;;;;;;20.46;55.00;99286.16;10266319;28;20215;-76
2021/08/07 09:22:33;;;;;;;2.53;1.90;;;;;;;20.78;54.07;99270.72;10266644;28;20227;-76
2021/08/07 09:27:41;;;;;;;3.70;2.10;;;;;;;21.00;53.68;99257.56;10265215;28;20204;-76
2021/08/07 09:32:45;;;;;;;3.17;1.67;;;;;;;20.99;53.40;99256.72;10265771;28;20626;-76
2021/08/07 09:38:06;;;;;;;2.55;1.95;;;;;;;21.02;54.63;99250.81;10266691;28;20235;-76
2021/08/07 09:43:12;;;;;;;2.08;1.58;;;;;;;21.08;52.83;99242.84;10266066;28;20223;-77
2021/08/07 09:48:16;;;;;;;2.25;1.77;;;;;;;21.99;52.76;99244.16;10264910;28;20232;-76
2021/08/07 09:53:27;;;;;;;2.88;1.90;;;;;;;22.05;51.31;99238.66;10266055;28;20221;-77
2021/08/07 09:58:31;;;;;;;2.63;1.77;;;;;;;21.43;52.83;99235.00;10264892;28;20201;-75
2021/08/07 10:03:35;;;;;;;2.08;1.50;;;;;;;20.95;52.57;99227.34;10265995;28;20228;-75
2021/08/07 10:08:47;;;;;;;2.70;1.77;;;;;;;20.86;53.77;99234.97;10271515;28;20256;-75
2021/08/07 10:13:52;;;;;;;2.90;1.55;;;;;;;21.53;51.98;99226.28;10271935;28;20224;-74
2021/08/07 10:19:02;;;;;;;3.50;1.65;;;;;;;21.21;52.48;99216.28;10271689;28;20213;-77
2021/08/07 10:24:08;;;;;;;3.53;1.60;;;;;;;22.71;49.47;99211.56;10288298;28;20212;-77
2021/08/07 10:29:13;;;;;;;4.10;1.70;;;;;;;22.28;50.09;99212.50;10271590;28;20208;-76
2021/08/07 10:34:16;;;;;;;3.42;1.73;;;;;;;21.58;51.07;99210.91;10270691;28;20712;-76
2021/08/07 10:39:21;;;;;;;6.70;1.92;;;;;;;21.28;51.89;99216.22;10271091;28;20247;-75
2021/08/07 10:44:25;;;;;;;2.67;1.40;;;;;;;21.69;49.09;99228.47;10270923;28;20205;-75
2021/08/07 10:49:39;;;;;;;1.90;1.30;;;;;;;21.82;48.27;99230.25;10286187;28;20225;-75
2021/08/07 10:54:44;;;;;;;2.85;1.60;;;;;;;22.10;47.88;99213.34;10270485;28;20658;-76
2021/08/07 10:59:46;;;;;;;2.38;1.48;;;;;;;23.08;47.43;99193.06;10271297;28;20275;-74
2021/08/07 11:04:51;;;;;;;6.32;1.80;;;;;;;23.51;45.14;99180.19;10271489;28;20197;-74
2021/08/07 11:10:17;;;;;;;4.70;1.33;;;;;;;22.87;45.31;99178.00;10271050;28;20255;-75
2021/08/07 11:15:31;;;;;;;1.70;1.30;;;;;;;23.81;44.60;99166.38;10265783;28;20213;-74
2021/08/07 11:20:44;;;;;;;8.15;1.30;;;;;;;24.07;42.54;99157.56;10269167;28;20229;-74
2021/08/07 11:26:00;;;;;;;1.90;1.40;;;;;;;22.88;44.80;99155.06;10270323;28;20244;-75
2021/08/07 11:31:13;;;;;;;3.33;1.30;;;;;;;23.39;43.18;99148.13;10269466;28;20228;-75
2021/08/07 11:36:18;;;;;;;2.13;1.42;;;;;;;23.93;42.99;99141.66;10269759;28;20280;-75
2021/08/07 11:41:32;;;;;;;5.25;1.73;;;;;;;24.00;43.39;99140.44;10270331;28;20213;-75
2021/08/07 11:46:38;;;;;;;1.38;1.27;;;;;;;23.31;44.64;99143.00;10272507;28;20666;-74
2021/08/07 11:51:41;;;;;;;3.08;1.60;;;;;;;23.05;45.11;99129.75;10273452;28;20635;-75
2021/08/07 11:56:47;;;;;;;1.65;1.30;;;;;;;22.45;45.79;99144.34;10268783;28;20609;-74
2021/08/07 12:01:50;;;;;;;2.15;1.50;;;;;;;21.62;48.49;99149.31;10269719;28;20224;-75
2021/08/07 12:06:53;;;;;;;2.17;1.77;;;;;;;17.31;70.80;99178.75;10267378;28;20204;-75
2021/08/07 12:12:03;;;;;;;2.08;1.75;;;;;;;16.13;78.56;99161.91;10268531;28;20213;-76
2021/08/07 12:17:06;;;;;;;3.85;2.20;;;;;;;16.86;73.80;99144.72;10267065;28;20209;-74
2021/08/07 12:22:10;;;;;;;3.13;2.45;;;;;;;18.08;75.54;99139.72;10267071;28;20224;-74
2021/08/07 12:27:14;;;;;;;4.40;2.53;;;;;;;18.95;69.91;99139.91;10267631;28;20196;-74
2021/08/07 12:32:21;;;;;;;5.45;2.30;;;;;;;19.83;64.24;99131.44;10268377;28;20295;-74
2021/08/07 12:37:23;;;;;;;2.72;2.15;;;;;;;20.53;64.96;99124.16;10267638;28;20228;-74
2021/08/07 12:42:30;;;;;;;2.97;2.10;;;;;;;21.36;60.25;99114.88;10267415;28;20216;-74
2021/08/07 12:47:35;;;;;;;4.82;2.10;;;;;;;22.26;57.00;99097.84;10267730;28;20255;-75
2021/08/07 12:52:49;;;;;;;2.25;1.80;;;;;;;22.36;52.14;99102.78;10269778;28;20704;-75
2021/08/07 12:58:11;;;;;;;5.07;2.08;;;;;;;23.41;48.11;99093.09;10268061;28;20193;-75
2021/08/07 13:03:14;;;;;;;4.07;1.70;;;;;;;24.91;44.72;99085.59;10292790;23;20705;-73
2021/08/07 13:08:28;;;;;;;3.13;1.23;;;;;;;22.55;45.10;99095.38;10268197;28;20215;-74
2021/08/07 13:13:40;;;;;;;3.45;1.60;;;;;;;22.00;45.73;99085.41;10267186;28;20231;-73
2021/08/07 13:18:43;;;;;;;3.42;1.80;;;;;;;22.14;46.34;99079.75;10266332;28;20193;-73
2021/08/07 13:23:46;;;;;;;1.50;1.40;;;;;;;21.88;46.92;99081.75;10266832;28;20221;-73
2021/08/07 13:28:50;;;;;;;3.03;1.65;;;;;;;21.42;48.53;99083.13;10266479;28;20197;-72
2021/08/07 13:33:53;;;;;;;4.03;1.50;;;;;;;21.33;46.70;99073.53;10266245;28;20228;-74
2021/08/07 13:38:56;;;;;;;2.45;1.70;;;;;;;21.51;44.99;99056.34;10264883;28;20189;-73
2021/08/07 13:44:00;;;;;;;2.63;1.60;;;;;;;22.77;42.76;99065.56;10265979;28;20216;-72
2021/08/07 13:49:04;;;;;;;2.42;1.40;;;;;;;23.32;42.30;99057.00;10266214;28;20193;-73
2021/08/07 13:54:07;;;;;;;2.90;2.33;;;;;;;23.07;42.54;99070.09;10264509;28;20232;-73
2021/08/07 13:59:11;;;;;;;4.85;1.73;;;;;;;24.15;41.42;99043.09;10266144;28;20207;-72
2021/08/07 14:04:14;;;;;;;4.43;1.73;;;;;;;22.88;43.03;99063.91;10266419;28;20693;-75
2021/08/07 14:09:17;;;;;;;4.75;2.65;;;;;;;21.67;44.24;99070.22;10265817;28;20205;-74
2021/08/07 14:14:22;;;;;;;4.18;2.55;;;;;;;21.70;43.95;99054.44;10265704;28;20218;-75
2021/08/07 14:19:25;;;;;;;4.55;1.90;;;;;;;21.60;44.78;99076.81;10265530;28;20182;-74
2021/08/07 14:24:28;;;;;;;1.77;1.50;;;;;;;21.61;45.35;99064.81;10265312;28;20189;-75
2021/08/07 14:29:32;;;;;;;2.83;1.40;;;;;;;21.15;45.77;99066.19;10265832;28;20237;-74
2021/08/07 14:34:35;;;;;;;3.38;1.90;;;;;;;20.88;47.72;99062.84;10264603;28;20276;-74
2021/08/07 14:39:38;;;;;;;6.60;2.08;;;;;;;20.92;48.27;99059.41;10265453;28;20667;-74
2021/08/07 14:44:42;;;;;;;3.60;1.80;;;;;;;21.22;48.04;99064.19;10264647;28;20196;-74
2021/08/07 14:49:45;;;;;;;2.50;1.65;;;;;;;21.17;49.15;99072.22;10264931;28;20220;-74
2021/08/07 14:54:48;;;;;;;2.30;1.80;;;;;;;20.81;51.04;99062.88;10271211;28;20215;-74
2021/08/07 14:59:53;;;;;;;2.25;1.55;;;;;;;20.44;53.49;99079.13;10272502;28;20228;-74
2021/08/07 15:04:55;;;;;;;4.40;1.80;;;;;;;19.68;54.23;99091.66;10270852;28;20611;-74
2021/08/07 15:09:58;;;;;;;3.13;1.73;;;;;;;19.39;54.61;99086.66;10271002;28;20225;-73
2021/08/07 15:15:03;;;;;;;3.30;2.00;;;;;;;18.99;57.37;99095.75;10271238;28;20272;-74
2021/08/07 15:20:07;;;;;;;3.03;2.10;;;;;;;19.33;56.51;99088.38;10270677;28;20251;-74
2021/08/07 15:25:12;;;;;;;4.25;1.90;;;;;;;19.30;56.24;99090.69;10270781;28;20530;-74
2021/08/07 15:30:16;;;;;;;2.88;1.90;;;;;;;19.23;55.99;99075.22;10270709;28;20209;-73
2021/08/07 15:35:19;;;;;;;3.00;1.80;;;;;;;19.20;55.44;99062.03;10270565;28;20568;-73
2021/08/07 15:40:22;;;;;;;3.95;1.67;;;;;;;20.18;53.48;99046.53;10270943;28;20215;-74
2021/08/07 15:45:26;;;;;;;2.35;1.63;;;;;;;20.62;51.22;99042.88;10268757;28;20689;-73
2021/08/07 15:50:29;;;;;;;2.40;2.10;;;;;;;20.81;50.63;99041.06;10270594;28;20225;-73
2021/08/07 15:55:32;;;;;;;3.10;1.80;;;;;;;23.11;45.57;99025.56;10269460;28;20224;-73
2021/08/07 16:00:37;;;;;;;2.53;1.23;;;;;;;24.30;42.23;99016.75;10269807;28;20275;-74
2021/08/07 16:05:40;;;;;;;1.77;1.40;;;;;;;24.78;40.77;99014.56;10268803;28;20185;-73
2021/08/07 16:10:43;;;;;;;2.35;1.30;;;;;;;23.63;41.13;99016.53;10271294;28;20550;-74
2021/08/07 16:15:47;;;;;;;1.80;1.30;;;;;;;21.41;44.08;99016.72;10269395;28;20196;-74
2021/08/07 16:20:55;;;;;;;2.53;1.23;;;;;;;21.47;44.09;99016.88;10268914;28;20216;-74
2021/08/07 16:25:57;;;;;;;1.23;1.10;;;;;;;22.75;42.48;99013.78;10268853;28;20674;-74
2021/08/07 16:31:02;;;;;;;1.50;1.40;;;;;;;23.55;40.65;99009.53;10268434;28;20231;-73
2021/08/07 16:36:05;;;;;;;1.70;1.35;;;;;;;22.47;39.72;99017.19;10267927;28;20192;-73
2021/08/07 16:41:08;;;;;;;1.42;1.25;;;;;;;21.64;42.18;99016.03;10268033;28;20705;-74
2021/08/07 16:46:14;;;;;;;1.67;1.25;;;;;;;21.13;41.75;99043.72;10266487;28;20207;-74
2021/08/07 16:51:18;;;;;;;2.55;1.33;;;;;;;21.77;41.74;99033.34;10267757;28;20284;-74
2021/08/07 16:56:21;;;;;;;1.20;1.10;;;;;;;21.78;41.47;99043.22;10267412;28;20203;-74
2021/08/07 17:01:27;;;;;;;6.38;3.83;;;;;;;22.99;39.43;99042.00;10267446;28;20224;-74
2021/08/07 17:06:31;;;;;;;2.63;1.42;;;;;;;24.10;37.38;99043.81;10267181;28;20189;-74
2021/08/07 17:11:34;;;;;;;2.33;1.15;;;;;;;26.72;33.43;99044.41;10267948;28;20217;-73
2021/08/07 17:16:38;;;;;;;1.40;1.30;;;;;;;26.25;33.19;99034.09;10266501;28;20203;-74
2021/08/07 17:21:50;;;;;;;1.63;1.50;;;;;;;25.74;34.45;99036.25;10267238;28;20736;-74
2021/08/07 17:26:53;;;;;;;2.58;1.95;;;;;;;23.99;37.31;99029.06;10266442;28;20197;-74
2021/08/07 17:31:57;;;;;;;2.60;1.95;;;;;;;21.37;43.26;99033.81;10266486;28;20674;-74
2021/08/07 17:37:00;;;;;;;1.25;1.10;;;;;;;20.43;45.68;99041.16;10266307;28;20189;-74
2021/08/07 17:42:03;;;;;;;1.42;1.00;;;;;;;22.14;42.13;99046.94;10266730;28;20752;-73
2021/08/07 17:47:08;;;;;;;1.30;1.20;;;;;;;23.25;40.68;99037.13;10266255;28;20284;-74
2021/08/07 17:52:11;;;;;;;1.27;1.17;;;;;;;24.32;37.63;99019.25;10266080;28;20236;-74
2021/08/07 17:57:14;;;;;;;2.58;1.20;;;;;;;24.91;37.04;99041.66;10265828;28;20568;-74
2021/08/07 18:02:19;;;;;;;2.03;1.77;;;;;;;23.73;39.22;99035.94;10265594;28;20220;-74
2021/08/07 18:07:22;;;;;;;1.65;1.17;;;;;;;22.44;41.33;99039.56;10265467;28;20643;-74
2021/08/07 18:12:25;;;;;;;3.83;1.58;;;;;;;21.26;43.39;99048.22;10265715;28;20605;-74
2021/08/07 18:17:29;;;;;;;1.65;1.30;;;;;;;20.74;44.48;99034.84;10265303;28;20700;-74
2021/08/07 18:22:32;;;;;;;1.40;1.30;;;;;;;20.31;45.92;99030.97;10266438;28;20297;-74
2021/08/07 18:27:35;;;;;;;2.65;1.42;;;;;;;19.97;47.13;99034.13;10268909;28;20193;-74
2021/08/07 18:32:40;;;;;;;1.25;1.15;;;;;;;19.71;48.30;99033.19;10272335;28;20217;-74
2021/08/07 18:37:43;;;;;;;4.47;1.70;;;;;;;19.43;49.10;99039.75;10271601;28;20573;-74
2021/08/07 18:42:46;;;;;;;3.05;1.27;;;;;;;19.17;50.36;99027.06;10272444;28;20212;-74
2021/08/07 18:47:50;;;;;;;2.22;1.40;;;;;;;19.01;51.07;99041.97;10271455;28;20200;-74
2021/08/07 18:52:53;;;;;;;4.32;1.75;;;;;;;18.80;51.89;99043.03;10271300;28;20220;-73
2021/08/07 18:57:56;;;;;;;2.33;1.63;;;;;;;18.65;52.86;99050.56;10270951;28;20272;-74
2021/08/07 19:03:00;;;;;;;2.97;2.30;;;;;;;18.49;53.80;99054.50;10316518;23;20235;-76
2021/08/07 19:08:04;;;;;;;3.65;2.03;;;;;;;18.39;54.55;99061.41;10309446;28;20669;-75
2021/08/07 19:13:06;;;;;;;4.35;1.95;;;;;;;18.40;54.88;99069.31;10309261;28;20713;-75
2021/08/07 19:18:11;;;;;;;3.28;1.90;;;;;;;18.38;55.20;99071.44;10309276;28;20200;-75
2021/08/07 19:23:13;;;;;;;3.25;2.25;;;;;;;18.43;55.15;99070.78;10309232;28;20238;-75
2021/08/07 19:28:16;;;;;;;3.88;2.60;;;;;;;18.47;55.61;99082.94;10309168;28;20200;-76
2021/08/07 19:33:20;;;;;;;4.80;2.70;;;;;;;18.47;56.26;99082.94;10308968;28;20212;-76
2021/08/07 19:38:23;;;;;;;5.88;3.05;;;;;;;18.37;57.35;99072.47;10307378;28;20648;-76
2021/08/07 19:43:26;;;;;;;3.85;2.33;;;;;;;18.19;58.50;99073.06;10308570;28;20216;-76
2021/08/07 19:48:33;;;;;;;4.82;2.45;;;;;;;18.05;59.36;99069.50;10308338;28;20279;-75
2021/08/07 19:53:36;;;;;;;3.35;2.42;;;;;;;17.92;59.76;99062.09;10308452;28;20713;-76
2021/08/07 19:58:39;;;;;;;5.18;2.65;;;;;;;17.88;59.51;99068.13;10307892;28;20668;-76
2021/08/07 20:03:43;;;;;;;4.28;2.13;;;;;;;17.84;59.24;99075.03;10307815;28;20225;-76
2021/08/07 20:08:46;;;;;;;4.82;2.58;;;;;;;17.78;58.92;99075.84;10307528;28;20204;-76
2021/08/07 20:13:49;;;;;;;3.85;2.55;;;;;;;17.79;59.26;99075.63;10309827;28;20588;-76
2021/08/07 20:18:53;;;;;;;3.67;2.65;;;;;;;17.81;58.58;99075.44;10308776;28;20200;-76
2021/08/07 20:23:57;;;;;;;5.53;2.70;;;;;;;17.82;58.16;99082.53;10309227;28;20589;-75
2021/08/07 20:29:00;;;;;;;2.75;2.20;;;;;;;17.83;57.70;99082.34;10307652;28;20200;-76
2021/08/07 20:34:04;;;;;;;5.40;2.17;;;;;;;17.77;57.88;99075.00;10306855;28;20591;-76
2021/08/07 20:39:07;;;;;;;3.92;2.30;;;;;;;17.82;57.93;99079.81;10307241;28;20200;-76
2021/08/07 20:44:10;;;;;;;2.60;2.22;;;;;;;17.77;57.86;99071.44;10306827;28;20204;-76
2021/08/07 20:49:14;;;;;;;3.22;2.30;;;;;;;17.91;57.26;99065.88;10306938;28;20200;-76
2021/08/07 20:54:17;;;;;;;4.22;1.88;;;;;;;17.95;57.18;99070.88;10306668;28;20228;-76
2021/08/07 20:59:20;;;;;;;3.58;2.10;;;;;;;17.90;57.26;99071.50;10307436;28;20259;-77
2021/08/07 21:04:27;;;;;;;4.38;2.10;;;;;;;17.98;57.13;99075.94;10307025;28;20231;-75
2021/08/07 21:09:29;;;;;;;3.90;2.20;;;;;;;17.94;57.37;99080.91;10307358;28;20546;-76
2021/08/07 21:14:32;;;;;;;3.75;2.17;;;;;;;17.95;57.38;99093.44;10306032;28;20223;-73
2021/08/07 21:19:37;;;;;;;2.97;2.22;;;;;;;17.75;58.19;99085.25;10306979;28;20198;-74
2021/08/07 21:24:39;;;;;;;4.47;2.30;;;;;;;17.77;58.28;99088.59;10306280;28;20212;-75
2021/08/07 21:29:44;;;;;;;2.47;2.00;;;;;;;17.71;58.33;99092.09;10306488;28;20538;-75
2021/08/07 21:34:48;;;;;;;4.55;2.45;;;;;;;17.72;58.47;99101.06;10306442;28;20269;-74
2021/08/07 21:39:51;;;;;;;3.30;2.33;;;;;;;17.54;59.04;99104.34;10305752;28;20188;-75
2021/08/07 21:44:54;;;;;;;2.45;2.03;;;;;;;17.48;59.45;99108.69;10305360;28;20199;-74
2021/08/07 21:49:58;;;;;;;3.72;1.88;;;;;;;17.36;59.76;99103.00;10305426;28;20223;-75
2021/08/07 21:55:01;;;;;;;2.35;1.92;;;;;;;17.26;60.27;99107.94;10305470;28;20223;-75
2021/08/07 22:00:06;;;;;;;3.40;1.98;;;;;;;17.24;60.01;99116.25;10305932;28;20195;-75
2021/08/07 22:05:11;;;;;;;3.70;2.30;;;;;;;17.19;60.28;99128.75;10311804;28;20235;-74
2021/08/07 22:10:14;;;;;;;3.20;2.20;;;;;;;17.03;60.61;99128.00;10311831;28;20705;-74
2021/08/07 22:15:17;;;;;;;4.07;1.73;;;;;;;16.80;60.00;99141.75;10310934;28;20274;-74
2021/08/07 22:20:21;;;;;;;2.90;1.90;;;;;;;17.02;59.30;99149.88;10314139;28;20220;-74
2021/08/07 22:25:24;;;;;;;2.42;1.77;;;;;;;16.96;59.03;99145.25;10313312;28;20519;-74
2021/08/07 22:30:27;;;;;;;3.63;1.95;;;;;;;17.01;59.25;99148.22;10313631;28;20228;-75
2021/08/07 22:35:31;;;;;;;1.58;1.48;;;;;;;16.56;58.85;99140.31;10309839;28;20577;-76
2021/08/07 22:40:34;;;;;;;3.08;1.73;;;;;;;16.62;58.77;99149.53;10314579;28;20224;-77
2021/08/07 22:45:37;;;;;;;4.40;1.63;;;;;;;16.62;58.39;99164.94;10312911;28;20196;-74
2021/08/07 22:50:41;;;;;;;1.95;1.25;;;;;;;16.57;58.34;99160.94;10315204;28;20212;-75
2021/08/07 22:55:44;;;;;;;1.50;1.40;;;;;;;16.65;57.90;99160.00;10315513;28;20238;-75
2021/08/07 23:00:47;;;;;;;2.25;1.38;;;;;;;16.51;58.33;99169.88;10310424;28;20239;-75
2021/08/07 23:05:51;;;;;;;1.65;1.55;;;;;;;16.43;58.53;99161.84;10311488;28;20196;-73
2021/08/07 23:10:55;;;;;;;1.50;1.25;;;;;;;16.16;58.88;99171.50;10310123;28;20224;-74
2021/08/07 23:15:57;;;;;;;1.63;1.25;;;;;;;16.25;58.39;99170.38;10311426;28;20823;-73
2021/08/07 23:21:02;;;;;;;1.23;1.15;;;;;;;15.97;59.23;99177.53;10309943;28;20224;-76
2021/08/07 23:26:04;;;;;;;1.08;0.98;;;;;;;15.89;59.45;99189.28;10309425;28;20657;-74
2021/08/07 23:31:07;;;;;;;1.20;1.00;;;;;;;15.67;59.90;99188.38;10309661;28;20220;-76
2021/08/07 23:36:12;;;;;;;1.25;0.93;;;;;;;15.71;60.28;99189.66;10310419;28;20212;-76